createdAt,value
2023-01-29T00:01:54.485Z,8.60
2023-01-29T00:04:29.752Z,7.85
2023-01-29T00:06:58.859Z,9.20
2023-01-29T00:09:35.124Z,8.85
2023-01-29T00:12:09.459Z,9.27
2023-01-29T00:14:37.317Z,8.20
2023-01-29T00:17:05.589Z,8.75
2023-01-29T00:19:35.630Z,8.38
2023-01-29T00:22:03.426Z,8.85
2023-01-29T00:24:37.729Z,7.68
2023-01-29T00:27:07.400Z,8.35
2023-01-29T00:29:35.825Z,7.85
2023-01-29T00:32:04.007Z,7.80
2023-01-29T00:37:21.390Z,7.80
2023-01-29T00:39:53.875Z,9.25
2023-01-29T00:42:40.067Z,10.45
2023-01-29T00:45:09.204Z,9.38
2023-01-29T00:48:01.950Z,8.45
2023-01-29T00:50:32.880Z,8.25
2023-01-29T00:53:01.861Z,8.85
2023-01-29T00:55:32.022Z,7.90
2023-01-29T00:57:59.837Z,8.77
2023-01-29T01:00:28.101Z,8.07
2023-01-29T01:03:12.568Z,8.88
2023-01-29T01:05:48.168Z,8.57
2023-01-29T01:08:34.705Z,9.43
2023-01-29T01:11:09.368Z,9.93
2023-01-29T01:13:43.251Z,8.10
2023-01-29T01:16:16.894Z,9.98
2023-01-29T01:18:53.311Z,9.13
2023-01-29T01:21:23.945Z,8.90
2023-01-29T01:23:57.948Z,9.40
2023-01-29T01:26:29.213Z,8.93
2023-01-29T01:29:05.880Z,8.18
2023-01-29T01:31:33.832Z,8.45
2023-01-29T01:34:04.388Z,9.65
2023-01-29T01:39:47.366Z,8.95
2023-01-29T01:50:21.007Z,9.15
2023-01-29T01:52:56.103Z,8.88
2023-01-29T01:55:32.425Z,10.07
2023-01-29T01:58:12.019Z,9.77
2023-01-29T02:00:39.923Z,8.77
2023-01-29T02:03:28.243Z,9.40
2023-01-29T02:06:17.923Z,9.00
2023-01-29T02:09:15.408Z,9.15
2023-01-29T02:11:47.961Z,9.10
2023-01-29T02:14:25.768Z,9.07
2023-01-29T02:16:59.080Z,9.43
2023-01-29T02:19:56.518Z,9.68
2023-01-29T02:23:10.204Z,10.00
2023-01-29T02:26:21.313Z,9.70
2023-01-29T02:29:27.612Z,10.68
2023-01-29T02:32:18.102Z,9.43
2023-01-29T02:35:33.136Z,9.68
2023-01-29T02:38:38.926Z,9.13
2023-01-29T02:41:31.564Z,9.80
2023-01-29T02:44:14.323Z,9.07
2023-01-29T02:47:14.621Z,9.20
2023-01-29T02:50:14.880Z,8.10
2023-01-29T02:53:13.890Z,8.48
2023-01-29T02:56:23.130Z,9.82
2023-01-29T02:59:24.973Z,7.97
2023-01-29T03:02:05.767Z,8.50
2023-01-29T03:04:46.628Z,8.63
2023-01-29T03:07:41.028Z,9.73
2023-01-29T03:10:35.400Z,9.25
2023-01-29T03:13:19.885Z,8.65
2023-01-29T03:16:01.716Z,8.68
2023-01-29T03:18:47.719Z,9.18
2023-01-29T03:22:03.317Z,8.73
2023-01-29T03:25:14.400Z,8.68
2023-01-29T03:28:27.079Z,7.68
2023-01-29T03:31:27.905Z,8.85
2023-01-29T03:37:11.906Z,9.57
2023-01-29T03:39:51.570Z,9.75
2023-01-29T03:42:25.855Z,9.52
2023-01-29T03:45:20.719Z,10.73
2023-01-29T03:48:32.668Z,9.63
2023-01-29T03:51:25.016Z,8.70
2023-01-29T03:54:42.656Z,8.45
2023-01-29T03:57:46.156Z,9.00
2023-01-29T04:00:31.045Z,8.52
2023-01-29T04:15:19.308Z,9.57
2023-01-29T04:26:17.930Z,8.73
2023-01-29T04:29:41.834Z,9.05
2023-01-29T04:32:34.603Z,9.95
2023-01-29T04:35:13.206Z,9.38
2023-01-29T04:38:27.513Z,9.35
2023-01-29T04:41:24.741Z,8.77
2023-01-29T04:44:26.217Z,10.60
2023-01-29T04:47:39.902Z,8.93
2023-01-29T05:05:18.802Z,9.38
2023-01-29T05:08:51.500Z,8.93
2023-01-29T05:12:12.985Z,9.55
2023-01-29T05:21:47.873Z,8.63
2023-01-29T05:24:24.723Z,9.05
2023-01-29T05:27:23.909Z,8.82
2023-01-29T05:30:09.152Z,9.30
2023-01-29T05:33:12.099Z,9.25
2023-01-29T05:35:54.425Z,9.02
2023-01-29T05:38:37.569Z,9.50
2023-01-29T05:41:25.518Z,9.30
2023-01-29T05:44:03.676Z,8.20
2023-01-29T05:47:11.139Z,8.60
2023-01-29T05:50:54.677Z,8.85
2023-01-29T05:57:19.990Z,9.70
2023-01-29T06:00:24.999Z,9.23
2023-01-29T06:03:21.753Z,8.88
2023-01-29T06:07:11.902Z,8.82
2023-01-29T06:09:59.651Z,8.63
2023-01-29T06:12:49.615Z,9.40
2023-01-29T06:19:07.800Z,8.70
2023-01-29T06:25:42.133Z,9.52
2023-01-29T06:29:07.816Z,8.70
2023-01-29T06:32:34.377Z,8.95
2023-01-29T06:36:23.555Z,9.48
2023-01-29T06:38:54.975Z,8.73
2023-01-29T06:41:25.674Z,9.30
2023-01-29T06:43:53.971Z,10.18
2023-01-29T06:46:24.737Z,10.18
2023-01-29T06:49:00.033Z,10.30
2023-01-29T06:51:32.180Z,9.95
2023-01-29T06:54:15.903Z,10.18
2023-01-29T07:04:33.078Z,11.38
2023-01-29T10:35:16.746Z,6.68
2023-01-29T10:42:43.688Z,8.38
2023-01-29T11:16:03.115Z,7.80
2023-01-29T11:19:37.322Z,6.85
2023-01-29T11:23:01.102Z,7.88
2023-01-29T11:26:22.243Z,8.15
2023-01-29T11:32:25.755Z,7.20
2023-01-29T11:35:32.773Z,7.57
2023-01-29T11:39:24.394Z,7.55
2023-01-29T11:41:38.576Z,8.15
2023-01-29T11:44:23.001Z,7.28
2023-01-29T11:47:15.911Z,7.28
2023-01-29T11:50:07.427Z,7.07
2023-01-29T11:52:48.531Z,7.05
2023-01-29T11:55:23.130Z,6.22
2023-01-29T11:58:19.681Z,8.00
2023-01-29T12:01:00.131Z,6.63
2023-01-29T12:03:57.334Z,7.22
2023-01-29T12:06:41.025Z,7.55
2023-01-29T12:09:27.524Z,7.30
2023-01-29T12:12:21.089Z,7.70
2023-01-29T12:15:31.086Z,6.97
2023-01-29T12:18:23.805Z,7.90
2023-01-29T12:21:26.731Z,7.53
2023-01-29T12:28:58.592Z,7.18
2023-01-29T12:32:01.273Z,7.30
2023-01-29T12:35:48.294Z,6.68
2023-01-29T12:38:37.276Z,8.30
2023-01-29T12:41:25.648Z,7.65
2023-01-29T12:44:50.428Z,7.88
2023-01-29T12:48:24.715Z,6.38
2023-01-29T12:51:43.274Z,7.28
2023-01-29T12:54:17.714Z,7.32
2023-01-29T12:57:09.317Z,7.05
2023-01-29T12:59:53.546Z,7.43
2023-01-29T13:02:52.804Z,7.35
2023-01-29T13:06:02.912Z,7.65
2023-01-29T13:08:41.766Z,7.68
2023-01-29T13:11:27.748Z,8.20
2023-01-29T13:14:08.306Z,8.00
2023-01-29T13:17:36.300Z,8.73
2023-01-29T13:23:39.512Z,9.20
2023-01-29T13:26:07.202Z,9.30
2023-01-29T13:28:34.918Z,9.80
2023-01-29T13:31:37.691Z,8.98
2023-01-29T13:34:23.188Z,9.60
2023-01-29T13:36:58.054Z,9.35
2023-01-29T13:39:44.355Z,9.52
2023-01-29T13:42:37.277Z,9.25
2023-01-29T13:45:09.580Z,11.25
2023-01-29T13:47:40.305Z,10.18
2023-01-29T13:50:33.185Z,9.80
2023-01-29T13:53:19.992Z,9.68
2023-01-29T13:55:48.141Z,9.98
2023-01-29T13:58:31.699Z,10.15
2023-01-29T14:01:04.968Z,9.65
2023-01-29T14:04:03.788Z,9.88
2023-01-29T14:06:46.285Z,10.10
2023-01-29T14:09:38.136Z,9.48
2023-01-29T14:12:25.842Z,10.02
2023-01-29T14:14:59.232Z,9.38
2023-01-29T14:17:27.602Z,9.63
2023-01-29T14:20:05.220Z,9.63
2023-01-29T14:22:34.798Z,9.23
2023-01-29T14:25:12.370Z,9.40
2023-01-29T14:27:56.548Z,9.40
2023-01-29T14:30:35.963Z,10.07
2023-01-29T14:33:07.043Z,9.82
2023-01-29T14:35:34.936Z,9.43
2023-01-29T14:38:07.901Z,9.27
2023-01-29T14:40:44.605Z,10.23
2023-01-29T14:43:22.367Z,10.20
2023-01-29T14:45:50.218Z,9.30
2023-01-29T14:48:55.359Z,9.73
2023-01-29T14:51:28.746Z,9.77
2023-01-29T14:54:28.169Z,9.77
2023-01-29T14:57:10.611Z,10.13
2023-01-29T15:00:09.979Z,9.48
2023-01-29T15:03:03.019Z,10.07
2023-01-29T15:05:42.313Z,9.65
2023-01-29T15:08:30.066Z,10.30
2023-01-29T15:11:21.620Z,10.18
2023-01-29T15:14:30.155Z,10.10
2023-01-29T15:17:12.723Z,10.15
2023-01-29T15:19:46.195Z,9.63
2023-01-29T15:22:36.256Z,10.18
2023-01-29T15:25:14.275Z,10.63
2023-01-29T15:27:44.172Z,10.90
2023-01-29T15:30:23.015Z,10.60
2023-01-29T15:32:50.852Z,10.80
2023-01-29T15:35:36.341Z,11.88
2023-01-29T15:38:20.609Z,11.05
2023-01-29T15:41:02.297Z,11.52
2023-01-29T15:43:40.407Z,11.70
2023-01-29T15:46:17.076Z,10.90
2023-01-29T15:49:06.748Z,11.77
2023-01-29T15:52:03.624Z,11.93
2023-01-29T16:09:52.810Z,10.40
2023-01-29T16:12:24.153Z,11.35
2023-01-29T16:14:52.472Z,11.02
2023-01-29T16:17:38.540Z,11.95
2023-01-29T16:20:20.568Z,11.90
2023-01-29T16:22:48.254Z,13.50
2023-01-29T16:25:22.208Z,12.50
2023-01-29T16:27:56.081Z,13.90
2023-01-29T16:30:33.270Z,13.55
2023-01-29T16:33:29.166Z,14.00
2023-01-29T16:36:05.924Z,14.95
2023-01-29T16:38:52.368Z,14.38
2023-01-29T19:55:15.274Z,19.15
2023-01-29T19:57:49.848Z,17.63
2023-01-29T20:00:27.920Z,19.73
2023-01-29T20:06:28.028Z,17.13
2023-01-29T20:08:56.561Z,18.73
2023-01-29T20:11:25.041Z,18.10
2023-01-29T20:13:55.369Z,18.25
2023-01-29T20:16:27.138Z,19.80
2023-01-29T20:18:55.637Z,21.02
2023-01-29T20:21:46.098Z,19.65
2023-01-29T20:24:14.593Z,18.83
2023-01-29T20:27:09.687Z,19.60
2023-01-29T20:29:37.014Z,18.37
2023-01-29T20:32:05.607Z,18.60
2023-01-29T20:34:33.169Z,17.20
2023-01-29T20:37:00.924Z,17.67
2023-01-29T20:39:29.181Z,17.90
2023-01-29T20:41:59.297Z,18.27
2023-01-29T20:44:27.192Z,17.38
2023-01-29T20:46:55.047Z,17.73
2023-01-29T20:49:23.794Z,17.95
2023-01-29T20:51:51.944Z,16.75
2023-01-29T20:54:23.077Z,17.83
2023-01-29T20:56:51.221Z,18.00
2023-01-29T20:59:19.489Z,16.05
2023-01-29T21:01:47.139Z,16.98
2023-01-29T21:04:14.766Z,17.27
2023-01-29T21:06:42.512Z,18.65
2023-01-29T21:09:11.107Z,20.38
2023-01-29T21:11:47.571Z,18.52
2023-01-29T21:15:12.260Z,18.65
2023-01-29T21:18:13.880Z,17.15
2023-01-29T21:21:00.513Z,17.52
2023-01-29T21:23:28.484Z,19.08
2023-01-29T21:26:32.352Z,19.77
2023-01-29T21:29:01.502Z,18.92
2023-01-29T21:35:10.098Z,19.75
2023-01-29T21:37:45.824Z,17.92
2023-01-29T21:40:17.087Z,18.60
2023-01-29T21:43:03.333Z,17.55
2023-01-29T21:45:35.894Z,18.73
2023-01-29T21:48:06.151Z,18.15
2023-01-29T21:50:44.217Z,17.90
